Time;durP1;ratioP1;P1;durP2;ratioP2;P2;SDS_P1;SDS_P2;PMS_P1;PMS_P2;Temp;Humidity;BMP_temperature;BMP_pressure;BME280_temperature;BME280_humidity;BME280_pressure;Samples;Min_cycle;Max_cycle;Signal;HPM_P1;HPM_P2
2023/06/27 00:01:08;;;;;;;2.70;2.50;;;;;;;;;;5045005;28;20287;-67
2023/06/27 00:03:34;;;;;;;3.33;2.53;;;;;;;;;;5043993;28;20045;-67
2023/06/27 00:06:04;;;;;;;2.65;2.45;;;;;;;;;;5043692;28;20044;-68
2023/06/27 00:08:33;;;;;;;2.70;2.50;;;;;;;;;;5044727;28;20754;-67
2023/06/27 00:10:59;;;;;;;2.30;2.20;;;;;;;;;;5044888;28;20041;-67
2023/06/27 00:13:25;;;;;;;2.95;2.38;;;;;;;;;;5041789;28;20048;-67
2023/06/27 00:15:54;;;;;;;3.95;2.85;;;;;;;;;;5044861;28;20075;-68
2023/06/27 00:18:23;;;;;;;3.47;2.83;;;;;;;;;;5042581;28;20060;-67
2023/06/27 00:20:49;;;;;;;4.60;2.90;;;;;;;;;;5044627;28;20033;-67
2023/06/27 00:23:24;;;;;;;2.83;2.50;;;;;;;;;;5042783;28;20098;-67
2023/06/27 00:25:50;;;;;;;9.07;3.22;;;;;;;;;;5045066;28;20377;-67
2023/06/27 00:28:16;;;;;;;3.78;2.60;;;;;;;;;;5044126;28;20036;-67
2023/06/27 00:30:41;;;;;;;2.80;2.60;;;;;;;;;;5044168;28;20029;-68
2023/06/27 00:33:10;;;;;;;3.03;2.70;;;;;;;;;;5042555;28;20036;-67
2023/06/27 00:35:38;;;;;;;4.00;2.70;;;;;;;;;;5046311;28;20033;-67
2023/06/27 00:38:04;;;;;;;3.70;2.42;;;;;;;;;;5048361;28;20504;-67
2023/06/27 00:40:31;;;;;;;8.38;3.00;;;;;;;;;;5043336;28;20504;-67
2023/06/27 00:42:57;;;;;;;3.03;2.60;;;;;;;;;;5048268;28;20029;-68
2023/06/27 00:45:23;;;;;;;3.72;2.58;;;;;;;;;;5064137;28;20996;-68
2023/06/27 00:47:53;;;;;;;11.27;3.05;;;;;;;;;;5059140;28;20033;-68
2023/06/27 00:50:23;;;;;;;3.80;2.60;;;;;;;;;;5063287;28;20091;-67
2023/06/27 00:52:50;;;;;;;3.92;2.40;;;;;;;;;;5047338;28;20435;-67
2023/06/27 00:55:17;;;;;;;4.80;2.80;;;;;;;;;;5063948;28;20044;-68
2023/06/27 00:57:46;;;;;;;4.88;2.55;;;;;;;;;;5046469;28;20638;-67
2023/06/27 01:00:13;;;;;;;3.47;2.80;;;;;;;;;;5046820;28;20032;-67
2023/06/27 01:02:39;;;;;;;2.70;2.50;;;;;;;;;;5048139;28;20044;-67
2023/06/27 01:05:07;;;;;;;6.75;2.83;;;;;;;;;;5044558;28;20142;-67
2023/06/27 01:07:39;;;;;;;3.10;2.50;;;;;;;;;;5048318;28;20033;-67
2023/06/27 01:10:20;;;;;;;6.18;2.90;;;;;;;;;;5047344;28;20048;-67
2023/06/27 01:13:02;;;;;;;2.85;2.65;;;;;;;;;;5047040;28;20094;-68
2023/06/27 01:15:28;;;;;;;2.88;2.55;;;;;;;;;;5046924;28;20036;-67
2023/06/27 01:17:56;;;;;;;5.38;2.83;;;;;;;;;;5063341;28;20040;-68
2023/06/27 01:20:23;;;;;;;5.57;2.47;;;;;;;;;;5047780;28;20028;-67
2023/06/27 01:23:26;;;;;;;3.35;2.85;;;;;;;;;;5046245;28;20039;-67
2023/06/27 01:26:07;;;;;;;2.88;2.60;;;;;;;;;;5045732;28;20496;-68
2023/06/27 01:28:33;;;;;;;5.90;2.90;;;;;;;;;;5047401;28;20103;-67
2023/06/27 01:31:01;;;;;;;5.45;2.97;;;;;;;;;;5061566;28;20116;-67
2023/06/27 01:33:48;;;;;;;3.30;2.72;;;;;;;;;;5047423;28;20028;-68
2023/06/27 01:36:48;;;;;;;4.28;2.60;;;;;;;;;;5060576;28;20491;-67
2023/06/27 01:39:18;;;;;;;4.15;2.80;;;;;;;;;;5077414;28;20037;-67
2023/06/27 01:41:47;;;;;;;2.75;2.55;;;;;;;;;;5047607;28;20041;-67
2023/06/27 01:44:14;;;;;;;;;;;;;;;;;;5063345;28;20039;-67
2023/06/27 01:46:40;;;;;;;5.05;2.85;;;;;;;;;;5046015;28;19991;-68
2023/06/27 01:49:08;;;;;;;2.42;2.22;;;;;;;;;;5045069;28;20036;-67
2023/06/27 01:51:34;;;;;;;3.63;2.63;;;;;;;;;;5062798;28;20044;-68
2023/06/27 01:54:00;;;;;;;2.80;2.60;;;;;;;;;;5062865;28;20112;-67
2023/06/27 01:56:27;;;;;;;3.00;2.30;;;;;;;;;;5044223;28;20041;-67
2023/06/27 01:58:53;;;;;;;4.07;2.83;;;;;;;;;;5078622;28;20742;-67
2023/06/27 02:01:19;;;;;;;3.55;2.70;;;;;;;;;;5046172;28;20075;-67
2023/06/27 02:03:44;;;;;;;3.55;2.60;;;;;;;;;;5045741;28;20577;-67
2023/06/27 02:06:10;;;;;;;5.68;2.78;;;;;;;;;;5047170;28;20119;-68
2023/06/27 02:08:36;;;;;;;3.67;2.58;;;;;;;;;;5062132;28;20052;-67
2023/06/27 02:11:02;;;;;;;2.95;2.65;;;;;;;;;;5045382;28;20033;-68
2023/06/27 02:13:28;;;;;;;3.85;2.40;;;;;;;;;;5045023;28;20454;-67
2023/06/27 02:15:53;;;;;;;5.50;2.60;;;;;;;;;;5046012;28;20488;-67
2023/06/27 02:18:20;;;;;;;4.93;2.97;;;;;;;;;;5040348;28;20086;-68
2023/06/27 02:20:46;;;;;;;3.83;2.75;;;;;;;;;;5036645;28;20041;-67
2023/06/27 02:23:11;;;;;;;5.72;2.90;;;;;;;;;;5041143;28;20033;-68
2023/06/27 02:25:37;;;;;;;6.00;2.85;;;;;;;;;;5062368;28;20540;-68
2023/06/27 02:28:04;;;;;;;3.42;3.13;;;;;;;;;;5045724;28;20106;-67
2023/06/27 02:30:31;;;;;;;3.80;3.00;;;;;;;;;;5044499;28;20047;-67
2023/06/27 02:32:57;;;;;;;4.82;2.80;;;;;;;;;;5047024;28;20032;-67
2023/06/27 02:35:22;;;;;;;2.40;2.30;;;;;;;;;;5045733;28;20039;-68
2023/06/27 02:37:49;;;;;;;3.13;2.70;;;;;;;;;;5044341;28;20116;-67
2023/06/27 02:40:14;;;;;;;4.15;2.72;;;;;;;;;;5045015;28;20036;-67
2023/06/27 02:42:40;;;;;;;2.70;2.50;;;;;;;;;;5046884;28;20028;-67
2023/06/27 02:45:06;;;;;;;10.35;2.53;;;;;;;;;;5046378;28;20033;-67
2023/06/27 02:47:32;;;;;;;2.50;2.30;;;;;;;;;;5045310;28;20637;-67
2023/06/27 02:49:57;;;;;;;2.70;2.50;;;;;;;;;;5042317;28;20072;-67
2023/06/27 02:52:23;;;;;;;3.58;2.60;;;;;;;;;;5046551;28;20056;-67
2023/06/27 02:54:49;;;;;;;2.85;2.63;;;;;;;;;;5046157;28;20041;-68
2023/06/27 02:57:15;;;;;;;6.35;2.95;;;;;;;;;;5044850;28;20048;-67
2023/06/27 02:59:43;;;;;;;2.78;2.55;;;;;;;;;;5060054;28;20086;-67
2023/06/27 03:02:11;;;;;;;4.07;2.78;;;;;;;;;;5045104;28;20099;-67
2023/06/27 03:04:37;;;;;;;3.28;2.97;;;;;;;;;;5060824;28;20037;-67
2023/06/27 03:07:03;;;;;;;2.80;2.60;;;;;;;;;;5044514;28;20208;-67
2023/06/27 03:09:28;;;;;;;2.72;2.60;;;;;;;;;;5044673;28;20816;-67
2023/06/27 03:11:54;;;;;;;5.35;2.50;;;;;;;;;;5061800;28;20727;-67
2023/06/27 03:14:25;;;;;;;5.95;2.60;;;;;;;;;;5060426;28;20143;-67
2023/06/27 03:16:54;;;;;;;4.22;2.42;;;;;;;;;;5045999;28;20116;-67
2023/06/27 03:19:20;;;;;;;3.20;2.85;;;;;;;;;;5075381;28;20041;-67
2023/06/27 03:21:46;;;;;;;4.70;2.60;;;;;;;;;;5043966;28;20033;-67
2023/06/27 03:24:12;;;;;;;2.45;2.33;;;;;;;;;;5060388;28;20730;-67
2023/06/27 03:26:42;;;;;;;2.60;2.38;;;;;;;;;;5044605;28;20040;-67
2023/06/27 03:29:08;;;;;;;7.50;2.72;;;;;;;;;;5043773;28;20028;-67
2023/06/27 03:31:34;;;;;;;2.85;2.55;;;;;;;;;;5041525;28;20135;-67
2023/06/27 03:34:00;;;;;;;2.30;2.20;;;;;;;;;;5045324;28;20049;-67
2023/06/27 03:36:25;;;;;;;2.85;2.65;;;;;;;;;;5045633;28;20530;-67
2023/06/27 03:38:51;;;;;;;2.70;2.47;;;;;;;;;;5059339;28;20041;-67
2023/06/27 03:41:17;;;;;;;2.85;2.65;;;;;;;;;;5044312;28;20111;-67
2023/06/27 03:43:43;;;;;;;2.45;2.33;;;;;;;;;;5044880;28;20203;-68
2023/06/27 03:46:12;;;;;;;2.72;2.50;;;;;;;;;;5043962;28;20641;-67
2023/06/27 03:48:38;;;;;;;2.63;2.47;;;;;;;;;;5043320;28;20029;-67
2023/06/27 03:51:04;;;;;;;2.70;2.50;;;;;;;;;;5043936;28;21338;-67
2023/06/27 03:53:30;;;;;;;2.83;2.50;;;;;;;;;;5044170;28;20131;-66
2023/06/27 03:55:55;;;;;;;4.53;2.50;;;;;;;;;;5060622;28;20033;-67
2023/06/27 03:58:21;;;;;;;2.83;2.50;;;;;;;;;;5042973;28;20039;-67
2023/06/27 04:00:52;;;;;;;2.90;2.60;;;;;;;;;;5058555;28;20729;-67
2023/06/27 04:03:17;;;;;;;5.38;2.60;;;;;;;;;;5043715;28;20039;-67
2023/06/27 04:05:43;;;;;;;3.05;2.72;;;;;;;;;;5059360;28;20411;-67
2023/06/27 04:08:09;;;;;;;2.60;2.40;;;;;;;;;;5044734;28;20411;-67
2023/06/27 04:10:35;;;;;;;2.45;2.30;;;;;;;;;;5057480;28;20043;-67
2023/06/27 04:13:00;;;;;;;3.20;2.65;;;;;;;;;;5059956;28;20111;-67
2023/06/27 04:15:28;;;;;;;2.83;2.40;;;;;;;;;;5041809;28;20083;-67
2023/06/27 04:17:53;;;;;;;3.72;2.50;;;;;;;;;;5043488;28;20037;-67
2023/06/27 04:20:19;;;;;;;5.13;2.67;;;;;;;;;;5056952;28;20055;-67
2023/06/27 04:22:45;;;;;;;2.80;2.60;;;;;;;;;;5059680;28;20040;-67
2023/06/27 04:25:11;;;;;;;3.20;2.58;;;;;;;;;;5040381;28;20060;-67
2023/06/27 04:27:37;;;;;;;6.18;2.50;;;;;;;;;;5060380;28;20029;-67
2023/06/27 04:30:03;;;;;;;7.28;2.60;;;;;;;;;;5042228;28;20040;-67
2023/06/27 04:32:33;;;;;;;2.47;2.30;;;;;;;;;;5041264;28;20493;-67
2023/06/27 04:34:59;;;;;;;2.90;2.60;;;;;;;;;;5043022;28;20040;-67
2023/06/27 04:37:25;;;;;;;4.53;3.10;;;;;;;;;;5044570;28;20079;-67
2023/06/27 04:39:53;;;;;;;2.85;2.55;;;;;;;;;;5044161;28;20084;-67
2023/06/27 04:42:18;;;;;;;2.58;2.22;;;;;;;;;;5042072;28;20041;-67
2023/06/27 04:44:44;;;;;;;2.40;2.20;;;;;;;;;;5045199;28;20040;-68
2023/06/27 04:47:09;;;;;;;2.70;2.40;;;;;;;;;;5045211;28;20531;-68
2023/06/27 04:49:35;;;;;;;3.40;2.42;;;;;;;;;;5041208;28;20044;-67
2023/06/27 04:52:01;;;;;;;2.85;2.40;;;;;;;;;;5044590;28;20108;-67
2023/06/27 04:54:26;;;;;;;5.80;2.35;;;;;;;;;;5044584;28;20039;-67
2023/06/27 04:56:52;;;;;;;2.85;2.58;;;;;;;;;;5040750;28;20041;-67
2023/06/27 04:59:19;;;;;;;3.38;2.67;;;;;;;;;;5037333;28;20413;-67
2023/06/27 05:01:45;;;;;;;5.03;2.40;;;;;;;;;;5043590;28;20103;-67
2023/06/27 05:04:10;;;;;;;4.80;2.70;;;;;;;;;;5044375;28;20120;-67
2023/06/27 05:06:36;;;;;;;2.47;1.98;;;;;;;;;;5044957;28;20116;-67
2023/06/27 05:09:03;;;;;;;2.72;2.28;;;;;;;;;;5042430;28;20048;-67
2023/06/27 05:11:30;;;;;;;3.20;2.35;;;;;;;;;;5044636;28;20040;-67
2023/06/27 05:13:56;;;;;;;4.50;2.65;;;;;;;;;;5044760;28;20452;-67
2023/06/27 05:16:22;;;;;;;2.30;2.10;;;;;;;;;;5037535;28;20431;-70
2023/06/27 05:18:48;;;;;;;2.42;2.22;;;;;;;;;;5040187;28;20040;-67
2023/06/27 05:21:13;;;;;;;2.30;2.10;;;;;;;;;;5045952;28;20037;-67
2023/06/27 05:23:39;;;;;;;2.53;2.13;;;;;;;;;;5047585;28;20068;-68
2023/06/27 05:26:04;;;;;;;4.13;2.20;;;;;;;;;;5047649;28;20144;-67
2023/06/27 05:28:30;;;;;;;2.33;2.13;;;;;;;;;;5047902;28;20033;-67
2023/06/27 05:30:57;;;;;;;2.90;2.25;;;;;;;;;;5047319;28;20029;-67
2023/06/27 05:33:22;;;;;;;3.08;2.13;;;;;;;;;;5043946;28;20115;-67
2023/06/27 05:35:48;;;;;;;4.05;2.33;;;;;;;;;;5048345;28;20128;-67
2023/06/27 05:38:14;;;;;;;2.47;2.10;;;;;;;;;;5047593;28;20459;-68
2023/06/27 05:40:39;;;;;;;6.13;2.67;;;;;;;;;;5042231;28;20048;-67
2023/06/27 05:43:05;;;;;;;6.70;2.28;;;;;;;;;;5048192;28;20416;-67
2023/06/27 05:45:30;;;;;;;4.22;2.50;;;;;;;;;;5041844;28;20124;-67
2023/06/27 05:47:56;;;;;;;3.17;2.47;;;;;;;;;;5047434;28;20122;-67
2023/06/27 05:50:21;;;;;;;2.20;2.00;;;;;;;;;;5047264;28;20087;-67
2023/06/27 05:52:47;;;;;;;3.40;2.85;;;;;;;;;;5046934;28;20033;-68
2023/06/27 05:55:13;;;;;;;3.55;2.20;;;;;;;;;;5047900;28;20488;-67
2023/06/27 05:57:38;;;;;;;2.55;2.35;;;;;;;;;;5046107;28;20036;-67
2023/06/27 06:00:10;;;;;;;2.67;2.40;;;;;;;;;;5047455;28;20114;-68
2023/06/27 06:02:38;;;;;;;3.35;2.40;;;;;;;;;;5047511;28;20028;-68
2023/06/27 06:05:05;;;;;;;2.63;2.10;;;;;;;;;;5045241;28;20365;-67
2023/06/27 06:07:31;;;;;;;2.30;2.10;;;;;;;;;;5047539;28;20403;-67
2023/06/27 06:09:57;;;;;;;2.70;2.50;;;;;;;;;;5047464;28;20300;-67
2023/06/27 06:12:22;;;;;;;5.65;2.30;;;;;;;;;;5047908;28;20037;-68
2023/06/27 06:14:48;;;;;;;5.07;2.83;;;;;;;;;;5045915;28;20029;-68
2023/06/27 06:17:13;;;;;;;8.48;2.63;;;;;;;;;;5047606;28;20117;-67
2023/06/27 06:19:39;;;;;;;6.57;2.65;;;;;;;;;;5047381;28;20067;-67
2023/06/27 06:22:05;;;;;;;3.67;2.38;;;;;;;;;;5047547;28;20409;-67
2023/06/27 06:24:30;;;;;;;3.10;1.98;;;;;;;;;;5044919;28;20519;-67
2023/06/27 06:26:56;;;;;;;4.38;2.53;;;;;;;;;;5047466;28;20542;-67
2023/06/27 06:29:21;;;;;;;4.75;2.40;;;;;;;;;;5047193;28;20092;-67
2023/06/27 06:31:47;;;;;;;3.58;2.47;;;;;;;;;;5047261;28;20373;-67
2023/06/27 06:34:12;;;;;;;5.70;2.60;;;;;;;;;;5042324;28;20040;-68
2023/06/27 06:36:38;;;;;;;2.42;2.22;;;;;;;;;;5046760;28;20055;-67
2023/06/27 06:39:03;;;;;;;2.05;1.95;;;;;;;;;;5046535;28;20640;-67
2023/06/27 06:41:29;;;;;;;2.20;2.00;;;;;;;;;;5045407;28;20403;-68
2023/06/27 06:43:57;;;;;;;2.30;2.10;;;;;;;;;;5060368;28;20029;-67
2023/06/27 06:46:24;;;;;;;2.80;2.53;;;;;;;;;;5046878;28;20040;-68
2023/06/27 06:48:50;;;;;;;2.58;2.33;;;;;;;;;;5046618;28;20029;-67
2023/06/27 06:51:16;;;;;;;2.63;2.20;;;;;;;;;;5046767;28;20468;-67
2023/06/27 06:53:41;;;;;;;2.38;2.13;;;;;;;;;;5046130;28;20937;-68
2023/06/27 06:56:07;;;;;;;2.90;2.70;;;;;;;;;;5046619;28;20550;-67
2023/06/27 06:58:33;;;;;;;3.88;2.50;;;;;;;;;;5046514;28;20381;-68
2023/06/27 07:00:59;;;;;;;2.88;2.60;;;;;;;;;;5046117;28;20028;-68
2023/06/27 07:03:24;;;;;;;5.35;2.70;;;;;;;;;;5046748;28;20033;-67
2023/06/27 07:05:50;;;;;;;2.40;2.30;;;;;;;;;;5042028;28;20033;-67
2023/06/27 07:08:15;;;;;;;3.08;2.60;;;;;;;;;;5044807;28;20029;-67
2023/06/27 07:10:41;;;;;;;2.45;2.25;;;;;;;;;;5046405;28;20503;-67
2023/06/27 07:13:06;;;;;;;2.42;2.22;;;;;;;;;;5046237;28;20041;-67
2023/06/27 07:15:32;;;;;;;8.93;2.40;;;;;;;;;;5045202;28;20031;-67
2023/06/27 07:17:59;;;;;;;2.40;2.30;;;;;;;;;;5046165;28;20035;-67
2023/06/27 07:20:24;;;;;;;2.53;2.35;;;;;;;;;;5045791;28;20100;-67
2023/06/27 07:22:50;;;;;;;3.85;2.38;;;;;;;;;;5046220;28;20124;-67
2023/06/27 07:25:16;;;;;;;4.80;2.50;;;;;;;;;;5044291;28;20130;-67
2023/06/27 07:27:43;;;;;;;3.03;2.60;;;;;;;;;;5046015;28;20048;-67
2023/06/27 07:30:09;;;;;;;2.60;2.42;;;;;;;;;;5044445;28;20029;-67
2023/06/27 07:32:34;;;;;;;2.75;2.45;;;;;;;;;;5046151;28;20040;-67
2023/06/27 07:35:00;;;;;;;2.70;2.50;;;;;;;;;;5043658;28;20067;-67
2023/06/27 07:37:26;;;;;;;2.50;2.40;;;;;;;;;;5045776;28;20412;-67
2023/06/27 07:39:51;;;;;;;2.40;2.20;;;;;;;;;;5045395;28;20122;-67
2023/06/27 07:42:17;;;;;;;2.70;2.50;;;;;;;;;;5045872;28;20288;-67
2023/06/27 07:44:43;;;;;;;2.70;2.50;;;;;;;;;;5043600;28;20200;-67
2023/06/27 07:47:09;;;;;;;2.50;2.30;;;;;;;;;;5044644;28;20028;-67
2023/06/27 07:49:34;;;;;;;2.63;2.42;;;;;;;;;;5045149;28;20036;-67
2023/06/27 07:52:00;;;;;;;2.67;2.30;;;;;;;;;;5044464;28;20041;-67
2023/06/27 07:54:27;;;;;;;2.50;2.30;;;;;;;;;;5044353;28;20705;-67
2023/06/27 07:56:56;;;;;;;5.78;2.40;;;;;;;;;;5045832;28;20032;-67
2023/06/27 07:59:22;;;;;;;3.20;2.60;;;;;;;;;;5043753;28;20059;-68
2023/06/27 08:01:47;;;;;;;4.60;2.40;;;;;;;;;;5045322;28;20420;-67
2023/06/27 08:04:15;;;;;;;2.63;2.42;;;;;;;;;;5041853;28;20032;-68
2023/06/27 08:06:41;;;;;;;5.38;2.35;;;;;;;;;;5045380;28;20358;-67
2023/06/27 08:09:07;;;;;;;2.60;2.40;;;;;;;;;;5045062;28;20048;-67
2023/06/27 08:11:32;;;;;;;3.83;2.40;;;;;;;;;;5045201;28;20036;-67
2023/06/27 08:13:58;;;;;;;2.50;2.30;;;;;;;;;;5043501;28;20036;-67
2023/06/27 08:16:24;;;;;;;2.88;2.47;;;;;;;;;;5045211;28;20048;-67
2023/06/27 08:18:49;;;;;;;3.72;2.20;;;;;;;;;;5044350;28;20033;-67
2023/06/27 08:21:15;;;;;;;3.72;2.50;;;;;;;;;;5044015;28;20033;-67
2023/06/27 08:23:41;;;;;;;2.63;2.40;;;;;;;;;;5045078;28;20441;-67
2023/06/27 08:26:07;;;;;;;3.80;2.30;;;;;;;;;;5045424;28;20029;-66
2023/06/27 08:28:32;;;;;;;4.57;2.40;;;;;;;;;;5044510;28;20035;-67
2023/06/27 08:30:58;;;;;;;6.55;3.03;;;;;;;;;;5043396;28;20033;-67
2023/06/27 08:33:24;;;;;;;2.63;2.42;;;;;;;;;;5045140;28;20041;-67
2023/06/27 08:35:50;;;;;;;2.88;2.25;;;;;;;;;;5045094;28;20040;-67
2023/06/27 08:38:17;;;;;;;3.60;2.50;;;;;;;;;;5043238;28;20037;-67
2023/06/27 08:40:44;;;;;;;5.10;2.75;;;;;;;;;;5041428;28;20033;-67
2023/06/27 08:43:10;;;;;;;3.70;2.50;;;;;;;;;;5042096;28;20396;-67
2023/06/27 08:45:39;;;;;;;3.72;2.53;;;;;;;;;;5042294;28;20032;-67
2023/06/27 08:48:07;;;;;;;2.58;2.38;;;;;;;;;;5042846;28;20138;-68
2023/06/27 08:50:37;;;;;;;6.95;2.65;;;;;;;;;;5041815;28;20083;-67
2023/06/27 08:53:05;;;;;;;2.55;2.22;;;;;;;;;;5043080;28;20864;-68
2023/06/27 08:56:09;;;;;;;2.90;2.50;;;;;;;;;;5043593;28;20445;-68
2023/06/27 08:58:51;;;;;;;2.72;2.50;;;;;;;;;;4986082;28;20484;-67
2023/06/27 09:01:17;;;;;;;3.47;2.45;;;;;;;;;;4988080;28;20116;-67
2023/06/27 09:03:42;;;;;;;2.90;2.60;;;;;;;;;;4984271;28;20414;-67
2023/06/27 09:06:08;;;;;;;6.45;2.60;;;;;;;;;;4982617;28;20487;-67
2023/06/27 09:08:34;;;;;;;2.60;2.40;;;;;;;;;;4984095;28;20042;-67
2023/06/27 09:11:01;;;;;;;4.05;2.65;;;;;;;;;;4984307;28;20074;-67
2023/06/27 09:13:27;;;;;;;3.72;2.60;;;;;;;;;;4984373;28;20042;-67
2023/06/27 09:15:53;;;;;;;4.88;2.65;;;;;;;;;;4982484;28;20604;-67
2023/06/27 09:18:19;;;;;;;2.88;2.58;;;;;;;;;;4983725;28;20099;-67
2023/06/27 09:20:45;;;;;;;4.55;2.45;;;;;;;;;;4984251;28;20038;-68
2023/06/27 09:23:12;;;;;;;2.58;2.38;;;;;;;;;;4984632;28;20042;-67
2023/06/27 09:25:37;;;;;;;3.85;2.45;;;;;;;;;;4981752;28;20049;-67
2023/06/27 09:28:15;;;;;;;2.53;2.33;;;;;;;;;;4984287;28;20030;-67
2023/06/27 09:30:50;;;;;;;2.63;2.40;;;;;;;;;;5046669;28;20037;-67
2023/06/27 09:33:18;;;;;;;3.28;2.70;;;;;;;;;;5044697;28;20534;-68
2023/06/27 09:35:44;;;;;;;3.10;2.38;;;;;;;;;;5046510;28;20047;-68
2023/06/27 09:38:10;;;;;;;3.15;2.50;;;;;;;;;;5045694;28;20468;-67
2023/06/27 09:40:36;;;;;;;2.67;2.40;;;;;;;;;;5043702;28;20047;-67
2023/06/27 09:43:05;;;;;;;3.40;2.80;;;;;;;;;;5046133;28;20033;-67
2023/06/27 09:45:30;;;;;;;2.88;2.60;;;;;;;;;;5046321;28;20127;-67
2023/06/27 09:47:56;;;;;;;4.28;2.78;;;;;;;;;;5044888;28;20116;-67
2023/06/27 09:50:31;;;;;;;3.70;2.75;;;;;;;;;;5044246;28;20109;-67
2023/06/27 09:52:59;;;;;;;3.47;2.60;;;;;;;;;;5044423;28;20369;-67
2023/06/27 09:55:25;;;;;;;5.50;2.63;;;;;;;;;;5045161;28;20041;-67
2023/06/27 09:57:52;;;;;;;6.07;2.95;;;;;;;;;;5046052;28;20250;-67
2023/06/27 10:00:22;;;;;;;3.75;2.55;;;;;;;;;;5047292;28;20147;-67
2023/06/27 10:02:48;;;;;;;3.25;2.50;;;;;;;;;;5045630;28;20033;-67
2023/06/27 10:05:15;;;;;;;2.58;2.38;;;;;;;;;;5047210;28;20040;-67
2023/06/27 10:07:42;;;;;;;2.50;2.30;;;;;;;;;;5046420;28;20029;-67
2023/06/27 10:10:08;;;;;;;3.17;2.72;;;;;;;;;;5047199;28;20037;-68
2023/06/27 10:12:33;;;;;;;3.40;2.42;;;;;;;;;;5046126;28;20029;-67
2023/06/27 10:14:59;;;;;;;4.57;2.45;;;;;;;;;;5047628;28;20064;-66
2023/06/27 10:17:28;;;;;;;4.75;2.85;;;;;;;;;;5047799;28;20448;-68
2023/06/27 10:19:54;;;;;;;4.22;2.90;;;;;;;;;;5047859;28;20032;-67
2023/06/27 10:22:21;;;;;;;2.70;2.50;;;;;;;;;;5045200;28;20040;-67
2023/06/27 10:24:51;;;;;;;3.28;2.45;;;;;;;;;;5047543;28;20055;-67
2023/06/27 10:27:25;;;;;;;4.43;2.70;;;;;;;;;;5046844;28;20037;-68
2023/06/27 10:29:50;;;;;;;4.63;2.80;;;;;;;;;;5045636;28;20639;-68
2023/06/27 10:32:19;;;;;;;2.67;2.47;;;;;;;;;;5047032;28;20040;-68
2023/06/27 10:34:45;;;;;;;6.53;2.75;;;;;;;;;;5047383;28;20033;-67
2023/06/27 10:37:24;;;;;;;3.00;2.75;;;;;;;;;;5046931;28;20124;-67
2023/06/27 10:39:57;;;;;;;4.40;2.97;;;;;;;;;;5044527;28;20139;-67
2023/06/27 10:42:22;;;;;;;3.28;2.53;;;;;;;;;;5077582;28;20480;-67
2023/06/27 10:45:03;;;;;;;4.95;2.90;;;;;;;;;;5046703;28;20029;-67
2023/06/27 10:47:41;;;;;;;2.75;2.45;;;;;;;;;;5043005;28;20051;-67
2023/06/27 10:50:15;;;;;;;3.07;2.73;;;;;;;;;;5046654;28;20029;-67
2023/06/27 10:53:02;;;;;;;3.08;2.55;;;;;;;;;;5043268;28;20756;-67
2023/06/27 10:55:29;;;;;;;3.15;2.83;;;;;;;;;;5043700;28;20487;-67
2023/06/27 10:58:10;;;;;;;4.30;2.65;;;;;;;;;;5046518;28;20029;-67
2023/06/27 11:00:40;;;;;;;4.47;2.88;;;;;;;;;;5046724;28;20087;-67
2023/06/27 11:03:08;;;;;;;4.20;2.75;;;;;;;;;;5044032;28;20475;-67
2023/06/27 11:05:49;;;;;;;3.10;2.80;;;;;;;;;;5044277;28;20136;-67
2023/06/27 11:08:17;;;;;;;2.92;2.65;;;;;;;;;;5046065;28;20104;-68
2023/06/27 11:10:59;;;;;;;4.05;2.55;;;;;;;;;;5044837;28;20043;-68
2023/06/27 11:13:39;;;;;;;4.65;2.60;;;;;;;;;;5046255;28;20036;-67
2023/06/27 11:16:04;;;;;;;4.78;2.80;;;;;;;;;;5046108;28;20440;-67
2023/06/27 11:18:30;;;;;;;3.10;2.72;;;;;;;;;;5044581;28;20057;-67
2023/06/27 11:20:57;;;;;;;5.63;2.67;;;;;;;;;;5046305;28;20212;-67
2023/06/27 11:23:24;;;;;;;3.58;2.72;;;;;;;;;;5045880;28;20040;-68
2023/06/27 11:25:52;;;;;;;2.63;2.40;;;;;;;;;;5044354;28;20029;-67
2023/06/27 11:28:19;;;;;;;4.93;2.78;;;;;;;;;;5045371;28;20051;-67
2023/06/27 11:30:45;;;;;;;2.80;2.60;;;;;;;;;;5045859;28;20453;-68
2023/06/27 11:33:15;;;;;;;5.15;2.80;;;;;;;;;;5046231;28;20484;-67
2023/06/27 11:35:40;;;;;;;4.45;2.50;;;;;;;;;;5044116;28;20534;-67
2023/06/27 11:38:07;;;;;;;5.50;2.58;;;;;;;;;;5045422;28;20068;-67
2023/06/27 11:40:33;;;;;;;4.68;2.53;;;;;;;;;;5045702;28;20028;-67
2023/06/27 11:43:08;;;;;;;4.15;2.80;;;;;;;;;;5044184;28;20462;-67
2023/06/27 11:45:36;;;;;;;3.10;2.50;;;;;;;;;;5039200;28;20489;-67
2023/06/27 11:48:02;;;;;;;2.83;2.50;;;;;;;;;;5045086;28;20041;-67
2023/06/27 11:50:29;;;;;;;2.92;2.65;;;;;;;;;;5042061;28;20051;-67
2023/06/27 11:52:58;;;;;;;2.85;2.55;;;;;;;;;;5043701;28;20040;-67
2023/06/27 11:55:24;;;;;;;3.63;2.90;;;;;;;;;;5043700;28;20044;-67
2023/06/27 11:57:55;;;;;;;2.60;2.40;;;;;;;;;;5036650;28;20393;-67
2023/06/27 12:00:24;;;;;;;4.25;2.50;;;;;;;;;;5042882;28;20036;-67
2023/06/27 12:02:54;;;;;;;2.80;2.60;;;;;;;;;;5043248;28;20037;-67
2023/06/27 12:05:21;;;;;;;3.10;2.58;;;;;;;;;;5043363;28;20072;-67
2023/06/27 12:08:04;;;;;;;3.47;2.83;;;;;;;;;;5040894;28;20472;-67
2023/06/27 12:10:52;;;;;;;2.72;2.50;;;;;;;;;;5043402;28;20462;-67
2023/06/27 12:13:19;;;;;;;3.42;2.60;;;;;;;;;;5043361;28;20151;-67
2023/06/27 12:15:47;;;;;;;2.78;2.42;;;;;;;;;;5041505;28;20057;-67
2023/06/27 12:18:24;;;;;;;5.57;2.25;;;;;;;;;;5043226;28;20032;-67
2023/06/27 12:20:52;;;;;;;2.72;2.53;;;;;;;;;;5043583;28;20072;-67
2023/06/27 12:23:18;;;;;;;3.50;2.58;;;;;;;;;;5043356;28;20033;-67
2023/06/27 12:25:44;;;;;;;3.00;2.60;;;;;;;;;;5042584;28;20092;-67
2023/06/27 12:28:10;;;;;;;2.83;2.63;;;;;;;;;;5041851;28;20029;-67
2023/06/27 12:30:36;;;;;;;6.40;2.65;;;;;;;;;;5042660;28;20469;-67
2023/06/27 12:33:02;;;;;;;5.15;2.55;;;;;;;;;;5041177;28;20528;-67
2023/06/27 12:35:27;;;;;;;3.22;2.58;;;;;;;;;;5058276;28;20048;-67
2023/06/27 12:37:53;;;;;;;3.13;2.47;;;;;;;;;;5042883;28;20427;-68
2023/06/27 12:40:22;;;;;;;2.70;2.50;;;;;;;;;;5042491;28;20047;-67
2023/06/27 12:42:49;;;;;;;2.83;2.50;;;;;;;;;;5042486;28;20514;-68
2023/06/27 12:45:14;;;;;;;2.50;2.28;;;;;;;;;;5043678;28;20507;-67
2023/06/27 12:47:43;;;;;;;5.28;2.40;;;;;;;;;;5042909;28;20028;-67
2023/06/27 12:50:10;;;;;;;2.72;2.45;;;;;;;;;;5041489;28;20035;-68
2023/06/27 12:52:36;;;;;;;2.70;2.50;;;;;;;;;;5042155;28;20032;-67
2023/06/27 12:55:02;;;;;;;3.03;2.60;;;;;;;;;;5043311;28;20028;-67
2023/06/27 12:57:28;;;;;;;2.90;2.60;;;;;;;;;;5043253;28;20450;-67
2023/06/27 12:59:53;;;;;;;5.85;2.40;;;;;;;;;;5041030;28;20037;-67
2023/06/27 13:02:19;;;;;;;4.88;2.70;;;;;;;;;;5043093;28;20393;-67
2023/06/27 13:04:44;;;;;;;2.72;2.53;;;;;;;;;;5043451;28;20067;-67
2023/06/27 13:07:10;;;;;;;4.55;2.40;;;;;;;;;;5042031;28;20051;-68
2023/06/27 13:09:37;;;;;;;3.10;2.50;;;;;;;;;;5042887;28;20619;-67
2023/06/27 13:12:03;;;;;;;3.17;2.53;;;;;;;;;;5043310;28;20532;-67
2023/06/27 13:14:29;;;;;;;3.70;2.95;;;;;;;;;;5043371;28;20048;-67
2023/06/27 13:16:55;;;;;;;2.35;2.25;;;;;;;;;;5041183;28;20033;-67
2023/06/27 13:19:21;;;;;;;4.53;2.58;;;;;;;;;;5042650;28;20059;-68
2023/06/27 13:21:46;;;;;;;5.00;2.65;;;;;;;;;;5043223;28;20041;-66
2023/06/27 13:24:14;;;;;;;2.95;2.75;;;;;;;;;;5040824;28;20094;-67
2023/06/27 13:26:41;;;;;;;3.85;2.70;;;;;;;;;;5041610;28;20430;-67
2023/06/27 13:29:07;;;;;;;3.58;2.70;;;;;;;;;;5041701;28;20029;-67
2023/06/27 13:31:32;;;;;;;3.10;2.80;;;;;;;;;;5043538;28;20037;-68
2023/06/27 13:33:58;;;;;;;3.00;2.80;;;;;;;;;;5057056;28;20048;-67
2023/06/27 13:36:23;;;;;;;3.78;2.50;;;;;;;;;;5042560;28;20044;-67
2023/06/27 13:38:49;;;;;;;4.45;2.70;;;;;;;;;;5042690;28;20033;-67
2023/06/27 13:41:15;;;;;;;6.10;2.80;;;;;;;;;;5041800;28;20510;-67
2023/06/27 13:43:41;;;;;;;4.07;2.75;;;;;;;;;;5045040;28;20047;-67
2023/06/27 13:46:06;;;;;;;4.03;2.50;;;;;;;;;;5046172;28;20033;-68
2023/06/27 13:48:32;;;;;;;2.88;2.60;;;;;;;;;;5046350;28;20032;-67
2023/06/27 13:50:59;;;;;;;2.65;2.45;;;;;;;;;;5044589;28;20052;-67
2023/06/27 13:53:24;;;;;;;2.50;2.30;;;;;;;;;;5046116;28;20029;-67
2023/06/27 13:55:52;;;;;;;4.32;3.42;;;;;;;;;;5046076;28;20043;-67
2023/06/27 13:58:18;;;;;;;4.18;2.60;;;;;;;;;;5043208;28;20041;-66
2023/06/27 14:00:47;;;;;;;2.88;2.35;;;;;;;;;;5043851;28;20242;-67
2023/06/27 14:03:13;;;;;;;2.70;2.50;;;;;;;;;;5045671;28;20047;-67
2023/06/27 14:05:39;;;;;;;4.00;2.50;;;;;;;;;;5045701;28;20039;-67
2023/06/27 14:08:05;;;;;;;2.88;2.67;;;;;;;;;;5045948;28;20029;-67
2023/06/27 14:10:30;;;;;;;3.97;2.85;;;;;;;;;;5041694;28;20036;-67
2023/06/27 14:12:57;;;;;;;4.18;2.80;;;;;;;;;;5045499;28;20079;-67
2023/06/27 14:15:23;;;;;;;2.92;2.60;;;;;;;;;;5044063;28;20045;-66
2023/06/27 14:17:49;;;;;;;5.05;2.80;;;;;;;;;;5044728;28;20029;-67
2023/06/27 14:20:15;;;;;;;6.25;2.85;;;;;;;;;;5045521;28;20488;-67
2023/06/27 14:22:40;;;;;;;2.60;2.40;;;;;;;;;;5045999;28;20033;-67
2023/06/27 14:25:07;;;;;;;2.90;2.65;;;;;;;;;;5045544;28;20040;-67
2023/06/27 14:27:35;;;;;;;2.97;2.22;;;;;;;;;;5041728;28;20281;-67
2023/06/27 14:30:01;;;;;;;5.25;3.15;;;;;;;;;;5044788;28;20041;-67
2023/06/27 14:32:27;;;;;;;4.13;2.65;;;;;;;;;;5045230;28;20035;-67
2023/06/27 14:34:52;;;;;;;4.38;2.42;;;;;;;;;;5045231;28;20040;-67
2023/06/27 14:37:18;;;;;;;3.45;2.63;;;;;;;;;;5043061;28;20029;-67
2023/06/27 14:39:44;;;;;;;3.90;2.40;;;;;;;;;;5045402;28;20037;-67
2023/06/27 14:42:09;;;;;;;3.47;2.50;;;;;;;;;;5045026;28;20040;-67
2023/06/27 14:44:35;;;;;;;2.60;2.40;;;;;;;;;;5044937;28;20076;-67